Bowling Green-Warren County Rgnl Information

FAA: BWG - ICAO: KBWG

Bowling Green-Warren County Rgnl (Airport) Location

State Kentucky
County Warren
City Bowling Green
Bowling Green-Warren County Rgnl (Airport) is 2 miles southeast of Bowling Green, KY.
Latitude 36-57-52.3000N
Longitude 086-25-10.8000W
Elevation 547ft

Bowling Green-Warren County Rgnl METARs

METAR KBWG 032253Z AUTO 21004KT 10SM CLR 19/08 A2995 RMK AO2 SLP141 T01940078
Altimeter 29.95"
Temperature 19.4°C (66.9°F)
Wind 210° at 4KT
Clouds Skies are clear.
Visibility 10.0mi
Time observed: 2021-12-03T22:53:00Z

Bowling Green-Warren County Rgnl (Airport) Details

Status Operational
Activation April 1940
Ownership Public
Usage Public
Chart ST LOUIS
ATC on-site No
Beacon schedule sunset-sunrise
Beacon color clear green

Bowling Green-Warren County Rgnl (Airport) Contacts

Owner CITY BOWLING GREEN-WARREN CO
Owner address 1000 WOODHURST ST, BOWLING GREEN, KY 42103
Owner phone 270-842-1101
Manager JOHN STINES
Manager address 501 SCOTT ST, WORTHINGTON, KY 41183
Manager phone (606) 858-2849

Bowling Green-Warren County Rgnl Radio Frequencies

Bowling Green-Warren County Rgnl (Airport) Radio Frequencies

UNICOM 123
Common traffic advisory frequency (CTAF) 123